createdAt,value
2024-03-04T00:01:29.056Z,99599.94
2024-03-04T00:03:57.288Z,99599.97
2024-03-04T00:06:24.941Z,99601.21
2024-03-04T00:08:54.881Z,99598.70
2024-03-04T00:11:22.455Z,99599.96
2024-03-04T00:13:49.903Z,99599.84
2024-03-04T00:16:17.478Z,99595.57
2024-03-04T00:18:44.979Z,99595.45
2024-03-04T00:21:12.469Z,99590.35
2024-03-04T00:23:40.043Z,99585.86
2024-03-04T00:26:08.234Z,99578.13
2024-03-04T00:28:35.776Z,99575.24
2024-03-04T00:31:04.546Z,99576.48
2024-03-04T00:33:32.909Z,99577.60
2024-03-04T00:36:00.509Z,99580.00
2024-03-04T00:38:28.358Z,99582.89
2024-03-04T00:40:56.054Z,99578.59
2024-03-04T00:43:23.550Z,99584.50
2024-03-04T00:45:51.498Z,99586.63
2024-03-04T00:48:19.141Z,99586.41
2024-03-04T00:50:47.121Z,99582.84
2024-03-04T00:53:14.593Z,99576.20
2024-03-04T00:55:42.132Z,99583.54
2024-03-04T00:58:10.340Z,99579.73
2024-03-04T01:00:38.491Z,99578.09
2024-03-04T01:03:06.563Z,99579.02
2024-03-04T01:05:34.807Z,99580.10
2024-03-04T01:08:02.310Z,99582.31
2024-03-04T01:10:29.821Z,99579.66
2024-03-04T01:12:57.780Z,99579.64
2024-03-04T01:15:27.119Z,99583.61
2024-03-04T01:17:54.903Z,99587.23
2024-03-04T01:20:22.487Z,99582.83
2024-03-04T01:22:50.982Z,99584.71
2024-03-04T01:25:18.590Z,99584.54
2024-03-04T01:27:46.732Z,99581.17
2024-03-04T01:30:15.198Z,99582.64
2024-03-04T01:32:44.359Z,99584.89
2024-03-04T01:35:16.557Z,99589.24
2024-03-04T01:37:44.978Z,99584.21
2024-03-04T01:40:14.980Z,99583.23
2024-03-04T01:42:45.856Z,99586.14
2024-03-04T01:45:33.221Z,99586.95
2024-03-04T01:48:04.967Z,99589.48
2024-03-04T01:50:37.314Z,99589.29
2024-03-04T01:53:05.332Z,99588.00
2024-03-04T01:55:44.246Z,99589.16
2024-03-04T01:58:16.563Z,99587.11
2024-03-04T02:00:45.728Z,99587.19
2024-03-04T02:03:14.450Z,99587.30
2024-03-04T02:05:42.117Z,99589.85
2024-03-04T02:08:09.686Z,99584.22
2024-03-04T02:10:37.218Z,99585.70
2024-03-04T02:13:06.075Z,99586.75
2024-03-04T02:15:37.513Z,99583.52
2024-03-04T02:18:06.891Z,99584.91
2024-03-04T02:20:42.653Z,99586.77
2024-03-04T02:23:13.072Z,99589.77
2024-03-04T02:25:51.160Z,99591.83
2024-03-04T02:28:18.921Z,99595.20
2024-03-04T02:30:46.510Z,99598.45
2024-03-04T02:33:14.036Z,99598.02
2024-03-04T02:35:41.772Z,99596.09
2024-03-04T02:38:09.230Z,99600.09
2024-03-04T02:40:36.845Z,99596.24
2024-03-04T02:43:05.286Z,99598.73
2024-03-04T02:45:32.775Z,99601.88
2024-03-04T02:48:00.300Z,99600.34
2024-03-04T02:50:28.479Z,99609.78
2024-03-04T02:52:56.009Z,99606.60
2024-03-04T02:55:23.501Z,99605.86
2024-03-04T02:57:51.064Z,99606.55
2024-03-04T03:00:19.398Z,99606.10
2024-03-04T03:02:46.831Z,99607.61
2024-03-04T03:05:14.321Z,99607.23
2024-03-04T03:07:41.865Z,99603.91
2024-03-04T03:10:10.527Z,99604.11
2024-03-04T03:12:39.556Z,99599.55
2024-03-04T03:15:07.966Z,99601.52
2024-03-04T03:17:38.369Z,99599.55
2024-03-04T03:20:18.659Z,99601.28
2024-03-04T03:22:52.618Z,99599.20
2024-03-04T03:25:20.125Z,99602.84
2024-03-04T03:27:47.594Z,99602.63
2024-03-04T03:30:15.962Z,99600.07
2024-03-04T03:32:44.247Z,99600.80
2024-03-04T03:35:11.806Z,99603.46
2024-03-04T03:37:39.359Z,99604.29
2024-03-04T03:40:08.845Z,99603.73
2024-03-04T03:42:36.389Z,99606.84
2024-03-04T03:45:04.510Z,99604.36
2024-03-04T03:47:32.313Z,99606.39
2024-03-04T03:49:59.741Z,99612.30
2024-03-04T03:52:27.341Z,99609.67
2024-03-04T03:54:55.052Z,99605.30
2024-03-04T03:57:22.494Z,99606.25
2024-03-04T03:59:50.019Z,99603.29
2024-03-04T04:02:17.590Z,99608.38
2024-03-04T04:04:45.359Z,99605.92
2024-03-04T04:07:13.018Z,99608.17
2024-03-04T04:09:40.592Z,99603.03
2024-03-04T04:12:08.586Z,99602.70
2024-03-04T04:14:36.109Z,99607.47
2024-03-04T04:17:03.663Z,99611.27
2024-03-04T04:19:31.172Z,99613.20
2024-03-04T04:21:58.909Z,99605.97
2024-03-04T04:24:26.552Z,99617.70
2024-03-04T04:26:54.023Z,99618.29
2024-03-04T04:29:21.514Z,99618.73
2024-03-04T04:31:49.220Z,99620.32
2024-03-04T04:34:16.862Z,99622.75
2024-03-04T04:36:51.274Z,99625.06
2024-03-04T04:39:18.761Z,99628.31
2024-03-04T04:41:46.621Z,99631.81
2024-03-04T04:44:14.225Z,99632.21
2024-03-04T04:46:41.765Z,99633.79
2024-03-04T04:49:09.442Z,99633.94
2024-03-04T04:51:36.974Z,99635.81
2024-03-04T04:54:04.487Z,99636.17
2024-03-04T04:56:31.958Z,99633.98
2024-03-04T04:58:59.428Z,99632.96
2024-03-04T05:01:28.006Z,99633.16
2024-03-04T05:04:14.025Z,99631.54
2024-03-04T05:06:43.559Z,99634.64
2024-03-04T05:09:12.313Z,99636.88
2024-03-04T05:11:39.858Z,99637.86
2024-03-04T05:14:12.499Z,99636.90
2024-03-04T05:16:39.967Z,99639.52
2024-03-04T05:19:07.518Z,99637.16
2024-03-04T05:21:35.025Z,99632.69
2024-03-04T05:24:02.838Z,99635.20
2024-03-04T05:26:30.283Z,99636.64
2024-03-04T05:28:57.888Z,99641.54
2024-03-04T05:31:26.847Z,99642.30
2024-03-04T05:33:54.401Z,99647.10
2024-03-04T05:36:22.678Z,99646.04
2024-03-04T05:38:50.129Z,99641.75
2024-03-04T05:41:17.625Z,99639.77
2024-03-04T05:43:45.735Z,99641.89
2024-03-04T05:46:13.705Z,99642.73
2024-03-04T05:49:29.308Z,99642.05
2024-03-04T05:51:59.962Z,99644.98
2024-03-04T05:54:29.027Z,99643.61
2024-03-04T05:56:56.493Z,99641.13
2024-03-04T05:59:23.978Z,99641.08
2024-03-04T06:01:51.545Z,99643.81
2024-03-04T06:04:19.346Z,99640.84
2024-03-04T06:06:47.541Z,99644.05
2024-03-04T06:09:17.204Z,99636.88
2024-03-04T06:11:45.067Z,99634.05
2024-03-04T06:14:12.536Z,99635.58
2024-03-04T06:16:40.062Z,99631.52
2024-03-04T06:19:07.673Z,99631.59
2024-03-04T06:21:37.056Z,99632.96
2024-03-04T06:24:04.930Z,99633.34
2024-03-04T06:26:32.567Z,99638.16
2024-03-04T06:28:59.990Z,99640.48
2024-03-04T06:31:27.866Z,99640.73
2024-03-04T06:33:57.151Z,99641.00
2024-03-04T06:36:26.418Z,99651.33
2024-03-04T06:38:53.871Z,99657.28
2024-03-04T06:41:21.314Z,99660.23
2024-03-04T06:43:48.856Z,99658.18
2024-03-04T06:46:16.482Z,99661.55
2024-03-04T06:48:45.160Z,99661.16
2024-03-04T06:51:12.772Z,99666.41
2024-03-04T06:53:40.965Z,99667.14
2024-03-04T06:56:10.529Z,99667.07
2024-03-04T06:58:38.408Z,99665.10
2024-03-04T07:01:06.082Z,99659.91
2024-03-04T07:03:33.782Z,99660.14
2024-03-04T07:06:01.317Z,99655.46
2024-03-04T07:08:31.603Z,99654.19
2024-03-04T07:11:01.001Z,99648.54
2024-03-04T07:13:28.688Z,99660.59
2024-03-04T07:15:56.227Z,99661.48
2024-03-04T07:18:23.762Z,99656.02
2024-03-04T07:20:51.400Z,99655.40
2024-03-04T07:23:18.935Z,99655.35
2024-03-04T07:25:46.560Z,99653.48
2024-03-04T07:28:15.513Z,99655.45
2024-03-04T07:30:43.128Z,99656.50
2024-03-04T07:33:13.223Z,99659.85
2024-03-04T07:35:41.571Z,99664.52
2024-03-04T07:38:09.626Z,99665.01
2024-03-04T07:40:37.616Z,99636.70
2024-03-04T07:43:05.521Z,99664.47
2024-03-04T07:45:33.056Z,99668.23
2024-03-04T07:48:00.628Z,99667.23
2024-03-04T07:50:28.247Z,99662.60
2024-03-04T07:52:55.926Z,99657.41
2024-03-04T07:55:24.197Z,99658.38
2024-03-04T07:57:51.797Z,99656.39
2024-03-04T08:00:20.025Z,99657.44
2024-03-04T08:02:47.598Z,99656.46
2024-03-04T08:05:15.146Z,99658.00
2024-03-04T08:07:42.738Z,99651.07
2024-03-04T08:10:11.047Z,99651.09
2024-03-04T08:12:38.890Z,99653.45
2024-03-04T08:15:07.126Z,99654.13
2024-03-04T08:17:34.925Z,99650.75
2024-03-04T08:20:09.029Z,99650.95
2024-03-04T08:22:41.940Z,99648.90
2024-03-04T08:25:09.975Z,99641.45
2024-03-04T08:27:37.576Z,99637.93
2024-03-04T08:30:06.295Z,99642.58
2024-03-04T08:32:34.105Z,99644.64
2024-03-04T08:35:01.706Z,99640.77
2024-03-04T08:37:29.650Z,99640.83
2024-03-04T08:40:00.787Z,99638.08
2024-03-04T08:42:28.450Z,99633.89
2024-03-04T08:44:55.979Z,99639.44
2024-03-04T08:47:23.799Z,99641.04
2024-03-04T08:49:51.427Z,99640.13
2024-03-04T08:52:19.116Z,99634.25
2024-03-04T08:54:46.763Z,99634.14
2024-03-04T08:57:14.466Z,99634.98
2024-03-04T08:59:42.171Z,99632.45
2024-03-04T09:02:11.742Z,99627.13
2024-03-04T09:04:39.433Z,99628.07
2024-03-04T09:07:07.121Z,99634.70
2024-03-04T09:09:36.718Z,99632.67
2024-03-04T09:12:05.252Z,99627.68
2024-03-04T09:14:32.806Z,99627.90
2024-03-04T09:17:00.384Z,99622.20
2024-03-04T09:19:27.928Z,99621.27
2024-03-04T09:21:56.317Z,99620.83
2024-03-04T09:24:23.922Z,99618.45
2024-03-04T09:26:51.418Z,99624.76
2024-03-04T09:29:18.985Z,99614.97
2024-03-04T09:31:46.684Z,99618.78
2024-03-04T09:34:14.358Z,99621.08
2024-03-04T09:36:41.956Z,99621.14
2024-03-04T09:39:12.883Z,99620.63
2024-03-04T09:41:42.149Z,99616.03
2024-03-04T09:44:09.754Z,99617.27
2024-03-04T09:46:38.819Z,99615.58
2024-03-04T09:49:06.732Z,99612.18
2024-03-04T09:51:34.321Z,99607.65
2024-03-04T09:54:02.888Z,99608.69
2024-03-04T09:56:30.430Z,99606.85
2024-03-04T09:58:58.014Z,99601.27
2024-03-04T10:01:25.964Z,99601.23
2024-03-04T10:03:53.771Z,99592.29
2024-03-04T10:06:21.554Z,99595.48
2024-03-04T10:08:49.164Z,99599.05
2024-03-04T10:11:16.714Z,99594.35
2024-03-04T10:13:44.518Z,99595.48
2024-03-04T10:16:16.598Z,99593.11
2024-03-04T10:19:03.277Z,99588.48
2024-03-04T10:21:34.478Z,99586.36
2024-03-04T10:24:09.313Z,99592.50
2024-03-04T10:26:41.830Z,99593.88
2024-03-04T10:29:09.740Z,99592.53
2024-03-04T10:31:41.994Z,99586.83
2024-03-04T10:34:09.721Z,99582.16
2024-03-04T10:36:37.363Z,99583.25
2024-03-04T10:39:06.737Z,99579.19
2024-03-04T10:41:35.560Z,99582.48
2024-03-04T10:44:03.991Z,99582.40
2024-03-04T10:46:31.591Z,99579.27
2024-03-04T10:48:59.268Z,99575.94
2024-03-04T10:51:30.129Z,99573.55
2024-03-04T10:54:00.984Z,99571.10
2024-03-04T10:56:28.575Z,99570.91
2024-03-04T10:58:57.866Z,99569.06
2024-03-04T11:01:26.789Z,99570.96
2024-03-04T11:03:59.037Z,99571.52
2024-03-04T11:06:27.300Z,99569.66
2024-03-04T11:08:58.413Z,99568.18
2024-03-04T11:11:40.280Z,99570.74
2024-03-04T11:14:16.054Z,99568.85
2024-03-04T11:16:49.347Z,99572.60
2024-03-04T11:19:32.220Z,99569.30
2024-03-04T11:21:59.814Z,99570.20
2024-03-04T11:24:29.044Z,99565.35
2024-03-04T11:26:57.138Z,99561.63
2024-03-04T11:29:25.029Z,99560.27
2024-03-04T11:31:56.658Z,99562.28
2024-03-04T11:34:24.290Z,99560.32
2024-03-04T11:36:53.320Z,99560.83
2024-03-04T11:39:25.945Z,99557.66
2024-03-04T11:41:54.533Z,99558.31
2024-03-04T11:44:26.114Z,99552.99
2024-03-04T11:46:54.170Z,99553.90
2024-03-04T11:49:32.393Z,99551.86
2024-03-04T11:52:07.597Z,99555.36
2024-03-04T11:54:36.271Z,99550.36
2024-03-04T11:57:05.706Z,99551.63
2024-03-04T11:59:33.446Z,99550.79
2024-03-04T12:02:01.270Z,99551.33
2024-03-04T12:04:30.787Z,99550.58
2024-03-04T12:06:58.460Z,99548.77
2024-03-04T12:09:45.049Z,99548.55
2024-03-04T12:12:17.911Z,99542.64
2024-03-04T12:14:46.220Z,99542.02
2024-03-04T12:17:15.202Z,99539.40
2024-03-04T12:19:56.423Z,99541.08
2024-03-04T12:22:27.301Z,99534.61
2024-03-04T12:25:05.573Z,99533.86
2024-03-04T12:27:34.129Z,99535.50
2024-03-04T12:30:16.080Z,99535.13
2024-03-04T12:32:44.219Z,99533.90
2024-03-04T12:35:31.140Z,99529.98
2024-03-04T12:38:00.391Z,99526.40
2024-03-04T12:40:28.310Z,99526.64
2024-03-04T12:43:01.137Z,99524.23
2024-03-04T12:45:32.804Z,99513.86
2024-03-04T12:48:00.916Z,99521.83
2024-03-04T12:50:29.825Z,99522.16
2024-03-04T12:52:58.572Z,99515.77
2024-03-04T12:55:26.707Z,99514.17
2024-03-04T12:57:57.922Z,99513.42
2024-03-04T13:00:28.443Z,99512.02
2024-03-04T13:02:56.305Z,99506.73
2024-03-04T13:05:24.055Z,99509.11
2024-03-04T13:07:51.664Z,99505.17
2024-03-04T13:10:19.307Z,99509.08
2024-03-04T13:12:49.813Z,99508.23
2024-03-04T13:15:17.770Z,99509.87
2024-03-04T13:17:46.220Z,99507.04
2024-03-04T13:20:17.010Z,99504.27
2024-03-04T13:22:47.056Z,99499.83
2024-03-04T13:25:17.414Z,99501.32
2024-03-04T13:27:45.482Z,99495.08
2024-03-04T13:30:13.743Z,99490.93
2024-03-04T13:32:41.465Z,99491.13
2024-03-04T13:35:10.533Z,99487.16
2024-03-04T13:37:39.279Z,99488.64
2024-03-04T13:40:07.972Z,99491.67
2024-03-04T13:42:35.824Z,99492.17
2024-03-04T13:45:03.566Z,99493.27
2024-03-04T13:47:31.150Z,99490.59
2024-03-04T13:49:58.758Z,99487.77
2024-03-04T13:52:26.361Z,99486.88
2024-03-04T13:54:54.016Z,99489.34
2024-03-04T13:57:21.527Z,99478.84
2024-03-04T13:59:49.194Z,99473.02
2024-03-04T14:02:16.776Z,99471.22
2024-03-04T14:04:44.505Z,99469.42
2024-03-04T14:07:12.212Z,99471.52
2024-03-04T14:09:39.912Z,99469.02
2024-03-04T14:12:08.126Z,99469.91
2024-03-04T14:14:35.663Z,99472.96
2024-03-04T14:17:03.234Z,99474.23
2024-03-04T14:19:30.890Z,99477.09
2024-03-04T14:21:59.085Z,99479.92
2024-03-04T14:24:26.795Z,99481.82
2024-03-04T14:26:54.324Z,99480.61
2024-03-04T14:29:21.853Z,99482.25
2024-03-04T14:31:49.677Z,99485.73
2024-03-04T14:34:17.424Z,99481.86
2024-03-04T14:36:45.032Z,99487.35
2024-03-04T14:39:12.719Z,99482.86
2024-03-04T14:41:40.558Z,99479.89
2024-03-04T14:44:08.425Z,99479.70
2024-03-04T14:46:35.957Z,99482.30
2024-03-04T14:49:03.744Z,99481.75
2024-03-04T14:51:31.410Z,99483.17
2024-03-04T14:53:58.953Z,99481.10
2024-03-04T14:56:29.846Z,99483.52
2024-03-04T14:58:57.917Z,99480.30
2024-03-04T15:01:25.599Z,99480.11
2024-03-04T15:03:53.370Z,99477.23
2024-03-04T15:06:20.978Z,99474.02
2024-03-04T15:08:51.323Z,99477.79
2024-03-04T15:11:18.966Z,99477.62
2024-03-04T15:13:46.857Z,99478.22
2024-03-04T15:16:14.932Z,99478.34
2024-03-04T15:18:42.746Z,99480.52
2024-03-04T15:21:10.642Z,99480.60
2024-03-04T15:23:38.511Z,99484.83
2024-03-04T15:26:06.048Z,99479.96
2024-03-04T15:28:33.628Z,99480.89
2024-03-04T15:31:02.547Z,99481.76
2024-03-04T15:33:31.054Z,99482.86
2024-03-04T15:36:09.950Z,99480.70
2024-03-04T15:38:45.435Z,99477.56
2024-03-04T15:41:13.200Z,99481.50
2024-03-04T15:43:40.743Z,99479.82
2024-03-04T15:46:08.493Z,99487.55
2024-03-04T15:48:36.794Z,99488.96
2024-03-04T15:51:06.385Z,99485.39
2024-03-04T15:53:35.239Z,99490.33
2024-03-04T15:56:04.887Z,99490.15
2024-03-04T15:58:32.735Z,99496.67
2024-03-04T16:01:00.668Z,99495.17
2024-03-04T16:03:30.562Z,99494.81
2024-03-04T16:05:59.524Z,99497.43
2024-03-04T16:08:27.087Z,99495.39
2024-03-04T16:10:54.803Z,99495.69
2024-03-04T16:13:22.446Z,99493.86
2024-03-04T16:15:54.332Z,99496.52
2024-03-04T16:18:23.590Z,99496.41
2024-03-04T16:20:51.193Z,99501.48
2024-03-04T16:23:19.482Z,99502.10
2024-03-04T16:25:47.172Z,99499.02
2024-03-04T16:28:15.210Z,99500.47
2024-03-04T16:30:44.061Z,99500.69
2024-03-04T16:33:11.598Z,99493.20
2024-03-04T16:35:39.203Z,99487.52
2024-03-04T16:38:07.097Z,99486.98
2024-03-04T16:40:34.689Z,99486.77
2024-03-04T16:43:02.997Z,99482.94
2024-03-04T16:45:32.097Z,99481.54
2024-03-04T16:47:59.722Z,99479.85
2024-03-04T16:50:27.408Z,99479.56
2024-03-04T16:52:55.837Z,99482.50
2024-03-04T16:55:24.152Z,99483.77
2024-03-04T16:57:54.849Z,99487.33
2024-03-04T17:00:22.559Z,99482.48
2024-03-04T17:02:50.840Z,99480.38
2024-03-04T17:05:18.375Z,99480.89
2024-03-04T17:07:49.031Z,99471.31
2024-03-04T17:10:17.801Z,99476.29
2024-03-04T17:12:45.561Z,99475.54
2024-03-04T17:15:13.631Z,99475.58
2024-03-04T17:17:41.769Z,99474.08
2024-03-04T17:20:10.236Z,99478.23
2024-03-04T17:22:38.329Z,99476.94
2024-03-04T17:25:07.058Z,99476.02
2024-03-04T17:27:34.803Z,99477.64
2024-03-04T17:30:02.576Z,99476.44
2024-03-04T17:32:30.512Z,99476.46
2024-03-04T17:34:58.445Z,99478.89
2024-03-04T17:37:26.101Z,99475.90
2024-03-04T17:39:54.043Z,99476.08
2024-03-04T17:42:21.595Z,99477.30
2024-03-04T17:44:49.134Z,99475.38
2024-03-04T17:47:16.669Z,99480.27
2024-03-04T17:49:51.082Z,99481.66
2024-03-04T17:52:18.779Z,99481.48
2024-03-04T17:54:46.352Z,99484.52
2024-03-04T17:57:14.050Z,99485.77
2024-03-04T17:59:42.629Z,99485.47
2024-03-04T18:02:10.578Z,99483.30
2024-03-04T18:07:11.634Z,99479.84
2024-03-04T18:09:40.766Z,99481.78
2024-03-04T18:12:08.883Z,99483.41
2024-03-04T18:14:38.095Z,99485.20
2024-03-04T18:17:05.674Z,99485.73
2024-03-04T18:19:33.384Z,99487.71
2024-03-04T18:22:04.528Z,99479.21
2024-03-04T18:24:32.163Z,99483.52
2024-03-04T18:26:59.966Z,99491.20
2024-03-04T18:29:27.471Z,99492.27
2024-03-04T18:31:55.122Z,99497.41
2024-03-04T18:34:24.773Z,99497.95
2024-03-04T18:36:52.601Z,99495.62
2024-03-04T18:39:20.745Z,99495.33
2024-03-04T18:41:48.999Z,99494.18
2024-03-04T18:44:16.531Z,99491.54
2024-03-04T18:46:47.655Z,99493.88
2024-03-04T18:49:15.400Z,99499.39
2024-03-04T18:51:43.365Z,99498.02
2024-03-04T18:54:16.510Z,99498.94
2024-03-04T18:56:44.978Z,99501.09
2024-03-04T18:59:12.554Z,99500.32
2024-03-04T19:01:40.259Z,99503.61
2024-03-04T19:04:07.880Z,99504.14
2024-03-04T19:06:35.808Z,99499.56
2024-03-04T19:09:05.963Z,99500.39
2024-03-04T19:11:33.786Z,99505.42
2024-03-04T19:14:01.575Z,99506.11
2024-03-04T19:16:29.391Z,99509.02
2024-03-04T19:18:57.110Z,99507.12
2024-03-04T19:21:27.000Z,99511.25
2024-03-04T19:23:54.879Z,99507.72
2024-03-04T19:26:22.459Z,99508.58
2024-03-04T19:28:51.433Z,99509.17
2024-03-04T19:31:19.965Z,99508.14
2024-03-04T19:33:50.801Z,99504.73
2024-03-04T19:36:18.624Z,99502.85
2024-03-04T19:38:46.298Z,99503.45
2024-03-04T19:41:32.746Z,99506.86
2024-03-04T19:44:00.452Z,99505.56
2024-03-04T19:46:29.209Z,99508.34
2024-03-04T19:48:57.276Z,99510.78
2024-03-04T19:51:26.481Z,99512.11
2024-03-04T19:53:54.973Z,99511.05
2024-03-04T19:56:22.773Z,99509.48
2024-03-04T19:58:50.391Z,99508.31
2024-03-04T20:01:19.533Z,99511.88
2024-03-04T20:03:47.142Z,99504.85
2024-03-04T20:06:14.907Z,99507.09
2024-03-04T20:08:42.973Z,99507.76
2024-03-04T20:11:12.531Z,99507.77
2024-03-04T20:13:44.292Z,99507.30
2024-03-04T20:16:15.898Z,99508.91
2024-03-04T20:18:43.626Z,99513.30
2024-03-04T20:21:12.844Z,99514.50
2024-03-04T20:23:42.268Z,99514.42
2024-03-04T20:26:11.235Z,99514.55
2024-03-04T20:28:38.845Z,99512.09
2024-03-04T20:31:07.565Z,99512.84
2024-03-04T20:33:35.807Z,99507.75
2024-03-04T20:36:05.615Z,99513.08
2024-03-04T20:38:33.337Z,99512.23
2024-03-04T20:41:01.414Z,99513.20
2024-03-04T20:43:29.144Z,99515.39
2024-03-04T20:45:57.762Z,99517.06
2024-03-04T20:48:29.346Z,99517.60
2024-03-04T20:50:57.789Z,99514.20
2024-03-04T20:53:25.340Z,99516.43
2024-03-04T20:55:53.051Z,99512.08
2024-03-04T20:58:20.837Z,99511.70
2024-03-04T21:00:48.645Z,99506.59
2024-03-04T21:03:16.269Z,99505.60
2024-03-04T21:05:43.877Z,99498.15
2024-03-04T21:08:11.437Z,99505.38
2024-03-04T21:10:39.549Z,99502.19
2024-03-04T21:13:07.138Z,99499.08
2024-03-04T21:15:34.712Z,99501.38
2024-03-04T21:18:02.438Z,99498.16
2024-03-04T21:20:30.147Z,99495.31
2024-03-04T21:23:04.190Z,99497.59
2024-03-04T21:25:32.505Z,99498.30
2024-03-04T21:28:00.128Z,99496.08
2024-03-04T21:30:29.233Z,99492.02
2024-03-04T21:32:56.852Z,99495.55
2024-03-04T21:35:24.370Z,99497.33
2024-03-04T21:37:51.988Z,99496.81
2024-03-04T21:40:19.805Z,99496.63
2024-03-04T21:42:47.474Z,99494.90
2024-03-04T21:45:15.028Z,99495.38
2024-03-04T21:47:44.857Z,99495.10
2024-03-04T21:50:12.429Z,99493.70
2024-03-04T21:52:42.128Z,99494.66
2024-03-04T21:55:09.915Z,99497.14
2024-03-04T21:57:37.512Z,99495.63
2024-03-04T22:00:15.758Z,99492.48
2024-03-04T22:02:46.863Z,99494.08
2024-03-04T22:05:14.643Z,99492.40
2024-03-04T22:07:42.685Z,99488.22
2024-03-04T22:10:12.675Z,99493.48
2024-03-04T22:12:41.472Z,99497.94
2024-03-04T22:15:11.340Z,99499.08
2024-03-04T22:17:39.104Z,99500.33
2024-03-04T22:20:11.550Z,99497.39
2024-03-04T22:22:39.527Z,99498.88
2024-03-04T22:25:08.299Z,99497.58
2024-03-04T22:27:36.089Z,99495.42
2024-03-04T22:30:05.291Z,99504.61
2024-03-04T22:32:32.974Z,99505.30
2024-03-04T22:35:01.917Z,99501.55
2024-03-04T22:37:31.799Z,99506.23
2024-03-04T22:39:59.517Z,99507.90
2024-03-04T22:42:27.031Z,99508.66
2024-03-04T22:44:54.843Z,99513.69
2024-03-04T22:47:24.338Z,99513.09
2024-03-04T22:49:52.144Z,99512.59
2024-03-04T22:52:20.336Z,99507.64
2024-03-04T22:54:49.330Z,99507.57
2024-03-04T22:57:16.984Z,99504.10
2024-03-04T22:59:45.275Z,99507.37
2024-03-04T23:02:13.252Z,99503.73
2024-03-04T23:04:41.016Z,99506.84
2024-03-04T23:07:08.632Z,99505.73
2024-03-04T23:09:36.246Z,99503.83
2024-03-04T23:12:09.928Z,99500.16
2024-03-04T23:14:38.262Z,99502.14
2024-03-04T23:17:09.619Z,99500.50
2024-03-04T23:19:37.500Z,99502.23
2024-03-04T23:22:06.908Z,99497.73
2024-03-04T23:24:34.372Z,99495.18
2024-03-04T23:27:01.855Z,99498.48
2024-03-04T23:29:29.343Z,99492.39
2024-03-04T23:31:56.908Z,99496.74
2024-03-04T23:34:24.645Z,99497.39
2024-03-04T23:36:52.506Z,99497.11
2024-03-04T23:39:24.338Z,99497.23
2024-03-04T23:41:52.451Z,99495.39
2024-03-04T23:44:21.280Z,99495.45
2024-03-04T23:46:48.941Z,99496.08
2024-03-04T23:49:16.645Z,99492.19
2024-03-04T23:51:44.317Z,99493.55
2024-03-04T23:54:11.816Z,99493.14
2024-03-04T23:56:42.905Z,99495.84
2024-03-04T23:59:10.700Z,99490.12
